sensor_id;sensor_type;location;lat;lon;timestamp;P1;durP1;ratioP1;P2;durP2;ratioP2
46090;SDS011;31826;53.572;10.170;2023-07-20T00:01:54;6.25;;;1.55;;
46090;SDS011;31826;53.572;10.170;2023-07-20T00:04:20;2.83;;;1.30;;
46090;SDS011;31826;53.572;10.170;2023-07-20T00:06:45;2.60;;;1.45;;
46090;SDS011;31826;53.572;10.170;2023-07-20T00:09:11;1.93;;;1.20;;
46090;SDS011;31826;53.572;10.170;2023-07-20T00:11:37;2.50;;;1.30;;
46090;SDS011;31826;53.572;10.170;2023-07-20T00:14:05;2.20;;;1.20;;
46090;SDS011;31826;53.572;10.170;2023-07-20T00:16:31;2.33;;;1.48;;
46090;SDS011;31826;53.572;10.170;2023-07-20T00:18:57;2.17;;;1.38;;
46090;SDS011;31826;53.572;10.170;2023-07-20T00:21:23;4.07;;;1.40;;
46090;SDS011;31826;53.572;10.170;2023-07-20T00:23:48;2.97;;;1.47;;
46090;SDS011;31826;53.572;10.170;2023-07-20T00:26:14;1.73;;;1.37;;
46090;SDS011;31826;53.572;10.170;2023-07-20T00:28:40;3.17;;;1.50;;
46090;SDS011;31826;53.572;10.170;2023-07-20T00:31:05;3.83;;;1.40;;
46090;SDS011;31826;53.572;10.170;2023-07-20T00:33:31;2.63;;;1.50;;
46090;SDS011;31826;53.572;10.170;2023-07-20T00:35:57;1.55;;;1.10;;
46090;SDS011;31826;53.572;10.170;2023-07-20T00:38:23;2.88;;;1.55;;
46090;SDS011;31826;53.572;10.170;2023-07-20T00:40:49;2.83;;;1.30;;
46090;SDS011;31826;53.572;10.170;2023-07-20T00:43:14;2.97;;;1.33;;
46090;SDS011;31826;53.572;10.170;2023-07-20T00:45:40;3.97;;;1.60;;
46090;SDS011;31826;53.572;10.170;2023-07-20T00:48:06;2.07;;;1.30;;
46090;SDS011;31826;53.572;10.170;2023-07-20T00:50:34;3.22;;;1.20;;
46090;SDS011;31826;53.572;10.170;2023-07-20T00:53:00;3.10;;;1.20;;
46090;SDS011;31826;53.572;10.170;2023-07-20T00:55:28;1.65;;;1.20;;
46090;SDS011;31826;53.572;10.170;2023-07-20T00:57:55;2.22;;;1.10;;
46090;SDS011;31826;53.572;10.170;2023-07-20T01:00:20;1.83;;;1.23;;
46090;SDS011;31826;53.572;10.170;2023-07-20T01:02:46;3.20;;;1.30;;
46090;SDS011;31826;53.572;10.170;2023-07-20T01:05:12;2.88;;;1.10;;
46090;SDS011;31826;53.572;10.170;2023-07-20T01:10:41;3.03;;;1.30;;
46090;SDS011;31826;53.572;10.170;2023-07-20T01:13:13;3.55;;;1.50;;
46090;SDS011;31826;53.572;10.170;2023-07-20T01:15:40;2.03;;;1.35;;
46090;SDS011;31826;53.572;10.170;2023-07-20T01:18:05;4.10;;;1.50;;
46090;SDS011;31826;53.572;10.170;2023-07-20T01:20:32;2.27;;;1.50;;
46090;SDS011;31826;53.572;10.170;2023-07-20T01:28:57;3.45;;;1.30;;
46090;SDS011;31826;53.572;10.170;2023-07-20T01:31:52;2.20;;;1.30;;
46090;SDS011;31826;53.572;10.170;2023-07-20T01:34:20;2.45;;;1.50;;
46090;SDS011;31826;53.572;10.170;2023-07-20T01:36:48;2.47;;;1.40;;
46090;SDS011;31826;53.572;10.170;2023-07-20T01:39:17;3.50;;;1.48;;
46090;SDS011;31826;53.572;10.170;2023-07-20T01:41:44;1.80;;;1.33;;
46090;SDS011;31826;53.572;10.170;2023-07-20T01:44:10;5.90;;;1.83;;
46090;SDS011;31826;53.572;10.170;2023-07-20T01:46:38;2.22;;;1.45;;
46090;SDS011;31826;53.572;10.170;2023-07-20T01:49:03;2.42;;;1.35;;
46090;SDS011;31826;53.572;10.170;2023-07-20T01:51:29;3.22;;;1.70;;
46090;SDS011;31826;53.572;10.170;2023-07-20T01:53:55;3.90;;;1.42;;
46090;SDS011;31826;53.572;10.170;2023-07-20T01:56:20;3.90;;;1.50;;
46090;SDS011;31826;53.572;10.170;2023-07-20T01:58:46;2.87;;;1.60;;
46090;SDS011;31826;53.572;10.170;2023-07-20T02:01:12;3.55;;;1.52;;
46090;SDS011;31826;53.572;10.170;2023-07-20T02:03:37;3.05;;;1.80;;
46090;SDS011;31826;53.572;10.170;2023-07-20T02:06:03;2.97;;;1.60;;
46090;SDS011;31826;53.572;10.170;2023-07-20T02:08:29;5.30;;;1.90;;
46090;SDS011;31826;53.572;10.170;2023-07-20T02:10:54;3.67;;;1.80;;
46090;SDS011;31826;53.572;10.170;2023-07-20T02:13:20;3.47;;;1.83;;
46090;SDS011;31826;53.572;10.170;2023-07-20T02:15:46;3.78;;;2.10;;
46090;SDS011;31826;53.572;10.170;2023-07-20T02:18:15;3.43;;;1.57;;
46090;SDS011;31826;53.572;10.170;2023-07-20T02:20:42;3.53;;;1.77;;
46090;SDS011;31826;53.572;10.170;2023-07-20T02:23:07;2.78;;;1.83;;
46090;SDS011;31826;53.572;10.170;2023-07-20T02:25:33;5.13;;;2.07;;
46090;SDS011;31826;53.572;10.170;2023-07-20T02:27:59;3.73;;;1.70;;
46090;SDS011;31826;53.572;10.170;2023-07-20T02:30:25;4.73;;;1.90;;
46090;SDS011;31826;53.572;10.170;2023-07-20T02:32:51;3.45;;;1.98;;
46090;SDS011;31826;53.572;10.170;2023-07-20T02:35:16;5.03;;;1.90;;
46090;SDS011;31826;53.572;10.170;2023-07-20T02:37:42;3.85;;;2.03;;
46090;SDS011;31826;53.572;10.170;2023-07-20T02:40:08;4.80;;;2.22;;
46090;SDS011;31826;53.572;10.170;2023-07-20T02:42:34;4.40;;;2.40;;
46090;SDS011;31826;53.572;10.170;2023-07-20T02:45:01;7.00;;;2.50;;
46090;SDS011;31826;53.572;10.170;2023-07-20T02:47:28;3.95;;;2.20;;
46090;SDS011;31826;53.572;10.170;2023-07-20T02:49:54;4.28;;;2.10;;
46090;SDS011;31826;53.572;10.170;2023-07-20T02:52:20;5.03;;;2.40;;
46090;SDS011;31826;53.572;10.170;2023-07-20T02:54:45;3.70;;;1.97;;
46090;SDS011;31826;53.572;10.170;2023-07-20T02:57:11;5.30;;;2.15;;
46090;SDS011;31826;53.572;10.170;2023-07-20T02:59:37;4.13;;;2.28;;
46090;SDS011;31826;53.572;10.170;2023-07-20T03:02:03;5.40;;;2.10;;
46090;SDS011;31826;53.572;10.170;2023-07-20T03:04:29;5.57;;;2.20;;
46090;SDS011;31826;53.572;10.170;2023-07-20T03:06:54;4.53;;;2.20;;
46090;SDS011;31826;53.572;10.170;2023-07-20T03:09:20;8.38;;;2.15;;
46090;SDS011;31826;53.572;10.170;2023-07-20T03:11:47;5.13;;;2.20;;
46090;SDS011;31826;53.572;10.170;2023-07-20T03:14:13;4.25;;;2.33;;
46090;SDS011;31826;53.572;10.170;2023-07-20T03:16:39;5.40;;;2.58;;
46090;SDS011;31826;53.572;10.170;2023-07-20T03:19:05;5.20;;;2.35;;
46090;SDS011;31826;53.572;10.170;2023-07-20T03:21:30;6.70;;;2.40;;
46090;SDS011;31826;53.572;10.170;2023-07-20T03:23:56;4.43;;;2.30;;
46090;SDS011;31826;53.572;10.170;2023-07-20T03:26:22;5.23;;;2.30;;
46090;SDS011;31826;53.572;10.170;2023-07-20T03:28:48;3.07;;;2.00;;
46090;SDS011;31826;53.572;10.170;2023-07-20T03:31:13;5.32;;;2.40;;
46090;SDS011;31826;53.572;10.170;2023-07-20T03:33:40;3.63;;;2.10;;
46090;SDS011;31826;53.572;10.170;2023-07-20T03:36:05;5.80;;;2.20;;
46090;SDS011;31826;53.572;10.170;2023-07-20T03:38:31;5.00;;;2.50;;
46090;SDS011;31826;53.572;10.170;2023-07-20T03:40:59;4.88;;;2.20;;
46090;SDS011;31826;53.572;10.170;2023-07-20T03:43:26;6.05;;;2.40;;
46090;SDS011;31826;53.572;10.170;2023-07-20T03:45:53;4.38;;;2.50;;
46090;SDS011;31826;53.572;10.170;2023-07-20T03:48:20;4.57;;;2.40;;
46090;SDS011;31826;53.572;10.170;2023-07-20T03:50:48;4.97;;;2.40;;
46090;SDS011;31826;53.572;10.170;2023-07-20T03:53:14;5.15;;;2.20;;
46090;SDS011;31826;53.572;10.170;2023-07-20T03:55:41;4.32;;;2.42;;
46090;SDS011;31826;53.572;10.170;2023-07-20T03:58:11;3.85;;;2.00;;
46090;SDS011;31826;53.572;10.170;2023-07-20T04:00:37;4.55;;;2.60;;
46090;SDS011;31826;53.572;10.170;2023-07-20T04:03:03;4.88;;;2.30;;
46090;SDS011;31826;53.572;10.170;2023-07-20T04:05:29;4.10;;;2.13;;
46090;SDS011;31826;53.572;10.170;2023-07-20T04:07:55;4.30;;;2.20;;
46090;SDS011;31826;53.572;10.170;2023-07-20T04:10:21;3.38;;;2.00;;
46090;SDS011;31826;53.572;10.170;2023-07-20T04:12:46;5.03;;;2.20;;
46090;SDS011;31826;53.572;10.170;2023-07-20T04:15:12;5.60;;;2.50;;
46090;SDS011;31826;53.572;10.170;2023-07-20T04:17:39;4.40;;;2.53;;
46090;SDS011;31826;53.572;10.170;2023-07-20T04:20:05;4.27;;;2.37;;
46090;SDS011;31826;53.572;10.170;2023-07-20T04:22:32;3.95;;;2.08;;
46090;SDS011;31826;53.572;10.170;2023-07-20T04:24:58;4.80;;;2.10;;
46090;SDS011;31826;53.572;10.170;2023-07-20T04:27:23;4.13;;;2.17;;
46090;SDS011;31826;53.572;10.170;2023-07-20T04:29:49;3.80;;;2.00;;
46090;SDS011;31826;53.572;10.170;2023-07-20T04:32:15;3.78;;;2.00;;
46090;SDS011;31826;53.572;10.170;2023-07-20T04:34:41;4.47;;;2.10;;
46090;SDS011;31826;53.572;10.170;2023-07-20T04:37:07;3.97;;;1.90;;
46090;SDS011;31826;53.572;10.170;2023-07-20T04:39:32;5.05;;;2.20;;
46090;SDS011;31826;53.572;10.170;2023-07-20T04:41:58;7.53;;;2.20;;
46090;SDS011;31826;53.572;10.170;2023-07-20T04:44:24;3.40;;;1.90;;
46090;SDS011;31826;53.572;10.170;2023-07-20T04:46:50;6.87;;;2.30;;
46090;SDS011;31826;53.572;10.170;2023-07-20T04:49:15;5.47;;;2.30;;
46090;SDS011;31826;53.572;10.170;2023-07-20T04:51:41;3.38;;;2.10;;
46090;SDS011;31826;53.572;10.170;2023-07-20T04:54:07;3.95;;;2.30;;
46090;SDS011;31826;53.572;10.170;2023-07-20T04:56:32;4.03;;;2.00;;
46090;SDS011;31826;53.572;10.170;2023-07-20T04:58:58;4.27;;;2.40;;
46090;SDS011;31826;53.572;10.170;2023-07-20T05:01:24;5.23;;;2.30;;
46090;SDS011;31826;53.572;10.170;2023-07-20T05:03:51;5.97;;;2.45;;
46090;SDS011;31826;53.572;10.170;2023-07-20T05:06:17;4.32;;;2.10;;
46090;SDS011;31826;53.572;10.170;2023-07-20T05:08:44;5.13;;;2.45;;
46090;SDS011;31826;53.572;10.170;2023-07-20T05:11:10;4.32;;;2.50;;
46090;SDS011;31826;53.572;10.170;2023-07-20T05:13:36;4.80;;;2.53;;
46090;SDS011;31826;53.572;10.170;2023-07-20T05:16:02;5.10;;;2.50;;
46090;SDS011;31826;53.572;10.170;2023-07-20T05:18:28;3.10;;;2.13;;
46090;SDS011;31826;53.572;10.170;2023-07-20T05:20:54;4.65;;;2.47;;
46090;SDS011;31826;53.572;10.170;2023-07-20T05:23:20;3.75;;;2.40;;
46090;SDS011;31826;53.572;10.170;2023-07-20T05:25:46;4.15;;;2.40;;
46090;SDS011;31826;53.572;10.170;2023-07-20T05:28:18;4.10;;;2.10;;
46090;SDS011;31826;53.572;10.170;2023-07-20T05:30:44;4.30;;;2.40;;
46090;SDS011;31826;53.572;10.170;2023-07-20T05:33:10;2.27;;;1.70;;
46090;SDS011;31826;53.572;10.170;2023-07-20T05:35:36;4.83;;;2.00;;
46090;SDS011;31826;53.572;10.170;2023-07-20T05:38:02;2.30;;;1.60;;
46090;SDS011;31826;53.572;10.170;2023-07-20T05:40:30;2.97;;;1.70;;
46090;SDS011;31826;53.572;10.170;2023-07-20T05:42:55;2.45;;;1.55;;
46090;SDS011;31826;53.572;10.170;2023-07-20T05:45:22;2.78;;;1.65;;
46090;SDS011;31826;53.572;10.170;2023-07-20T05:47:47;2.38;;;1.38;;
46090;SDS011;31826;53.572;10.170;2023-07-20T05:50:13;3.53;;;1.80;;
46090;SDS011;31826;53.572;10.170;2023-07-20T05:52:39;2.10;;;1.33;;
46090;SDS011;31826;53.572;10.170;2023-07-20T05:55:05;4.03;;;1.50;;
46090;SDS011;31826;53.572;10.170;2023-07-20T05:57:32;2.63;;;1.40;;
46090;SDS011;31826;53.572;10.170;2023-07-20T05:59:58;2.28;;;1.50;;
46090;SDS011;31826;53.572;10.170;2023-07-20T06:02:23;3.47;;;1.90;;
46090;SDS011;31826;53.572;10.170;2023-07-20T06:04:49;7.97;;;2.37;;
46090;SDS011;31826;53.572;10.170;2023-07-20T06:07:15;3.85;;;1.92;;
46090;SDS011;31826;53.572;10.170;2023-07-20T06:09:40;4.50;;;2.08;;
46090;SDS011;31826;53.572;10.170;2023-07-20T06:12:06;4.87;;;2.10;;
46090;SDS011;31826;53.572;10.170;2023-07-20T06:14:33;3.63;;;2.03;;
46090;SDS011;31826;53.572;10.170;2023-07-20T06:16:58;2.47;;;1.80;;
46090;SDS011;31826;53.572;10.170;2023-07-20T06:19:24;3.08;;;2.10;;
46090;SDS011;31826;53.572;10.170;2023-07-20T06:21:50;3.05;;;2.03;;
46090;SDS011;31826;53.572;10.170;2023-07-20T06:24:19;3.50;;;1.88;;
46090;SDS011;31826;53.572;10.170;2023-07-20T06:26:44;3.10;;;1.60;;
46090;SDS011;31826;53.572;10.170;2023-07-20T06:29:10;3.40;;;1.57;;
46090;SDS011;31826;53.572;10.170;2023-07-20T06:31:36;1.57;;;1.37;;
46090;SDS011;31826;53.572;10.170;2023-07-20T06:34:02;3.80;;;1.40;;
46090;SDS011;31826;53.572;10.170;2023-07-20T06:36:28;4.53;;;1.45;;
46090;SDS011;31826;53.572;10.170;2023-07-20T06:38:54;2.63;;;1.20;;
46090;SDS011;31826;53.572;10.170;2023-07-20T06:41:20;1.55;;;1.45;;
46090;SDS011;31826;53.572;10.170;2023-07-20T06:43:46;1.48;;;1.10;;
46090;SDS011;31826;53.572;10.170;2023-07-20T06:46:12;3.80;;;1.30;;
46090;SDS011;31826;53.572;10.170;2023-07-20T06:48:38;3.03;;;1.10;;
46090;SDS011;31826;53.572;10.170;2023-07-20T06:51:04;3.03;;;1.30;;
46090;SDS011;31826;53.572;10.170;2023-07-20T06:53:30;5.50;;;1.58;;
46090;SDS011;31826;53.572;10.170;2023-07-20T06:55:56;4.50;;;1.55;;
46090;SDS011;31826;53.572;10.170;2023-07-20T06:58:25;2.70;;;1.10;;
46090;SDS011;31826;53.572;10.170;2023-07-20T07:00:51;2.50;;;1.30;;
46090;SDS011;31826;53.572;10.170;2023-07-20T07:03:17;3.75;;;1.30;;
46090;SDS011;31826;53.572;10.170;2023-07-20T07:05:43;5.03;;;1.20;;
46090;SDS011;31826;53.572;10.170;2023-07-20T07:08:10;3.33;;;1.25;;
46090;SDS011;31826;53.572;10.170;2023-07-20T07:10:36;1.38;;;1.00;;
46090;SDS011;31826;53.572;10.170;2023-07-20T07:13:02;1.83;;;1.20;;
46090;SDS011;31826;53.572;10.170;2023-07-20T07:15:28;3.83;;;1.23;;
46090;SDS011;31826;53.572;10.170;2023-07-20T07:17:54;3.30;;;1.35;;
46090;SDS011;31826;53.572;10.170;2023-07-20T07:20:21;4.60;;;1.10;;
46090;SDS011;31826;53.572;10.170;2023-07-20T07:22:46;2.28;;;1.17;;
46090;SDS011;31826;53.572;10.170;2023-07-20T07:25:13;3.78;;;1.02;;
46090;SDS011;31826;53.572;10.170;2023-07-20T07:27:39;2.85;;;1.05;;
46090;SDS011;31826;53.572;10.170;2023-07-20T07:30:05;3.90;;;1.10;;
46090;SDS011;31826;53.572;10.170;2023-07-20T07:32:31;2.00;;;1.00;;
46090;SDS011;31826;53.572;10.170;2023-07-20T07:34:57;4.00;;;1.27;;
46090;SDS011;31826;53.572;10.170;2023-07-20T07:37:25;2.80;;;1.10;;
46090;SDS011;31826;53.572;10.170;2023-07-20T07:39:51;2.55;;;1.15;;
46090;SDS011;31826;53.572;10.170;2023-07-20T07:42:17;5.25;;;1.35;;
46090;SDS011;31826;53.572;10.170;2023-07-20T07:44:43;2.15;;;1.00;;
46090;SDS011;31826;53.572;10.170;2023-07-20T07:47:09;2.30;;;1.10;;
46090;SDS011;31826;53.572;10.170;2023-07-20T07:49:35;2.17;;;1.10;;
46090;SDS011;31826;53.572;10.170;2023-07-20T07:52:01;2.13;;;1.20;;
46090;SDS011;31826;53.572;10.170;2023-07-20T07:54:29;2.23;;;1.20;;
46090;SDS011;31826;53.572;10.170;2023-07-20T07:56:55;5.07;;;1.20;;
46090;SDS011;31826;53.572;10.170;2023-07-20T07:59:21;1.63;;;1.10;;
46090;SDS011;31826;53.572;10.170;2023-07-20T08:01:47;5.50;;;1.42;;
46090;SDS011;31826;53.572;10.170;2023-07-20T08:04:13;5.65;;;1.40;;
46090;SDS011;31826;53.572;10.170;2023-07-20T08:06:39;2.17;;;1.00;;
46090;SDS011;31826;53.572;10.170;2023-07-20T08:09:05;4.15;;;1.50;;
46090;SDS011;31826;53.572;10.170;2023-07-20T08:11:30;4.63;;;1.63;;
46090;SDS011;31826;53.572;10.170;2023-07-20T08:13:59;5.50;;;1.47;;
46090;SDS011;31826;53.572;10.170;2023-07-20T08:16:25;6.13;;;2.00;;
46090;SDS011;31826;53.572;10.170;2023-07-20T08:18:51;3.27;;;1.40;;
46090;SDS011;31826;53.572;10.170;2023-07-20T08:21:17;3.47;;;1.90;;
46090;SDS011;31826;53.572;10.170;2023-07-20T08:23:42;6.82;;;1.70;;
46090;SDS011;31826;53.572;10.170;2023-07-20T08:26:08;6.53;;;1.58;;
46090;SDS011;31826;53.572;10.170;2023-07-20T08:28:34;4.53;;;1.92;;
46090;SDS011;31826;53.572;10.170;2023-07-20T08:31:00;3.33;;;1.55;;
46090;SDS011;31826;53.572;10.170;2023-07-20T08:33:25;4.88;;;1.80;;
46090;SDS011;31826;53.572;10.170;2023-07-20T08:35:54;7.78;;;1.60;;
46090;SDS011;31826;53.572;10.170;2023-07-20T08:38:21;5.67;;;1.77;;
46090;SDS011;31826;53.572;10.170;2023-07-20T08:40:47;4.30;;;1.40;;
46090;SDS011;31826;53.572;10.170;2023-07-20T08:43:13;4.60;;;1.80;;
46090;SDS011;31826;53.572;10.170;2023-07-20T08:45:41;8.23;;;1.80;;
46090;SDS011;31826;53.572;10.170;2023-07-20T08:48:10;4.88;;;1.52;;
46090;SDS011;31826;53.572;10.170;2023-07-20T08:50:37;6.53;;;1.65;;
46090;SDS011;31826;53.572;10.170;2023-07-20T08:53:03;4.68;;;1.60;;
46090;SDS011;31826;53.572;10.170;2023-07-20T08:55:29;6.80;;;1.50;;
46090;SDS011;31826;53.572;10.170;2023-07-20T08:57:57;3.60;;;1.45;;
46090;SDS011;31826;53.572;10.170;2023-07-20T09:00:24;4.45;;;1.40;;
46090;SDS011;31826;53.572;10.170;2023-07-20T09:02:52;4.00;;;1.38;;
46090;SDS011;31826;53.572;10.170;2023-07-20T09:05:19;5.03;;;1.38;;
46090;SDS011;31826;53.572;10.170;2023-07-20T09:07:45;3.35;;;1.30;;
46090;SDS011;31826;53.572;10.170;2023-07-20T09:10:11;4.07;;;1.60;;
46090;SDS011;31826;53.572;10.170;2023-07-20T09:12:41;5.63;;;1.38;;
46090;SDS011;31826;53.572;10.170;2023-07-20T09:15:09;8.82;;;1.55;;
46090;SDS011;31826;53.572;10.170;2023-07-20T09:17:36;5.90;;;1.80;;
46090;SDS011;31826;53.572;10.170;2023-07-20T09:20:05;5.00;;;1.60;;
46090;SDS011;31826;53.572;10.170;2023-07-20T09:22:33;5.07;;;1.75;;
46090;SDS011;31826;53.572;10.170;2023-07-20T09:24:59;3.63;;;1.48;;
46090;SDS011;31826;53.572;10.170;2023-07-20T09:27:38;4.55;;;1.63;;
46090;SDS011;31826;53.572;10.170;2023-07-20T09:30:04;5.60;;;1.65;;
46090;SDS011;31826;53.572;10.170;2023-07-20T09:35:29;6.95;;;1.52;;
46090;SDS011;31826;53.572;10.170;2023-07-20T09:38:00;5.53;;;1.70;;
46090;SDS011;31826;53.572;10.170;2023-07-20T09:40:26;5.50;;;1.77;;
46090;SDS011;31826;53.572;10.170;2023-07-20T09:42:53;7.18;;;1.50;;
46090;SDS011;31826;53.572;10.170;2023-07-20T09:45:28;2.35;;;1.30;;
46090;SDS011;31826;53.572;10.170;2023-07-20T09:48:23;2.53;;;1.00;;
46090;SDS011;31826;53.572;10.170;2023-07-20T09:50:50;3.60;;;0.90;;
46090;SDS011;31826;53.572;10.170;2023-07-20T09:53:17;3.97;;;1.60;;
46090;SDS011;31826;53.572;10.170;2023-07-20T09:55:45;4.93;;;1.30;;
46090;SDS011;31826;53.572;10.170;2023-07-20T09:58:12;2.38;;;0.93;;
46090;SDS011;31826;53.572;10.170;2023-07-20T10:00:39;2.92;;;1.23;;
46090;SDS011;31826;53.572;10.170;2023-07-20T10:03:08;2.23;;;0.90;;
46090;SDS011;31826;53.572;10.170;2023-07-20T10:05:39;1.30;;;0.90;;
46090;SDS011;31826;53.572;10.170;2023-07-20T10:08:09;2.75;;;0.90;;
46090;SDS011;31826;53.572;10.170;2023-07-20T10:10:37;2.50;;;1.00;;
46090;SDS011;31826;53.572;10.170;2023-07-20T10:13:05;2.90;;;1.20;;
46090;SDS011;31826;53.572;10.170;2023-07-20T10:15:37;2.67;;;1.08;;
46090;SDS011;31826;53.572;10.170;2023-07-20T10:20:59;3.00;;;1.00;;
46090;SDS011;31826;53.572;10.170;2023-07-20T10:23:28;3.35;;;1.02;;
46090;SDS011;31826;53.572;10.170;2023-07-20T10:25:55;2.60;;;0.85;;
46090;SDS011;31826;53.572;10.170;2023-07-20T10:28:22;2.65;;;0.80;;
46090;SDS011;31826;53.572;10.170;2023-07-20T10:30:49;2.47;;;0.87;;
46090;SDS011;31826;53.572;10.170;2023-07-20T10:33:16;1.63;;;0.90;;
46090;SDS011;31826;53.572;10.170;2023-07-20T10:35:55;2.78;;;0.98;;
46090;SDS011;31826;53.572;10.170;2023-07-20T10:38:38;2.63;;;1.00;;
46090;SDS011;31826;53.572;10.170;2023-07-20T10:43:57;2.75;;;1.17;;
46090;SDS011;31826;53.572;10.170;2023-07-20T10:49:03;3.20;;;0.80;;
46090;SDS011;31826;53.572;10.170;2023-07-20T10:51:30;2.53;;;0.90;;
46090;SDS011;31826;53.572;10.170;2023-07-20T10:56:41;4.25;;;1.10;;
46090;SDS011;31826;53.572;10.170;2023-07-20T10:59:56;1.65;;;0.80;;
46090;SDS011;31826;53.572;10.170;2023-07-20T11:02:08;4.07;;;0.93;;
46090;SDS011;31826;53.572;10.170;2023-07-20T11:07:10;2.05;;;0.73;;
46090;SDS011;31826;53.572;10.170;2023-07-20T11:09:39;2.40;;;0.80;;
46090;SDS011;31826;53.572;10.170;2023-07-20T11:12:13;3.35;;;0.98;;
46090;SDS011;31826;53.572;10.170;2023-07-20T11:14:43;1.88;;;0.75;;
46090;SDS011;31826;53.572;10.170;2023-07-20T11:17:20;2.30;;;0.87;;
46090;SDS011;31826;53.572;10.170;2023-07-20T11:19:58;3.95;;;1.00;;
46090;SDS011;31826;53.572;10.170;2023-07-20T11:22:27;3.05;;;0.90;;
46090;SDS011;31826;53.572;10.170;2023-07-20T11:24:55;3.50;;;1.17;;
46090;SDS011;31826;53.572;10.170;2023-07-20T11:27:22;3.53;;;1.08;;
46090;SDS011;31826;53.572;10.170;2023-07-20T11:29:48;5.85;;;1.20;;
46090;SDS011;31826;53.572;10.170;2023-07-20T11:32:23;3.30;;;0.93;;
46090;SDS011;31826;53.572;10.170;2023-07-20T11:34:49;3.30;;;0.90;;
46090;SDS011;31826;53.572;10.170;2023-07-20T11:37:16;3.00;;;1.00;;
46090;SDS011;31826;53.572;10.170;2023-07-20T11:39:43;3.90;;;1.10;;
46090;SDS011;31826;53.572;10.170;2023-07-20T11:42:09;5.55;;;1.15;;
46090;SDS011;31826;53.572;10.170;2023-07-20T11:44:35;5.03;;;1.10;;
46090;SDS011;31826;53.572;10.170;2023-07-20T11:49:29;2.47;;;1.08;;
46090;SDS011;31826;53.572;10.170;2023-07-20T11:52:06;2.13;;;0.70;;
46090;SDS011;31826;53.572;10.170;2023-07-20T11:54:37;0.65;;;0.60;;
46090;SDS011;31826;53.572;10.170;2023-07-20T11:57:04;1.40;;;0.75;;
46090;SDS011;31826;53.572;10.170;2023-07-20T11:59:31;1.58;;;0.80;;
46090;SDS011;31826;53.572;10.170;2023-07-20T12:01:58;5.07;;;0.70;;
46090;SDS011;31826;53.572;10.170;2023-07-20T12:04:28;1.92;;;0.75;;
46090;SDS011;31826;53.572;10.170;2023-07-20T12:06:54;2.00;;;0.80;;
46090;SDS011;31826;53.572;10.170;2023-07-20T12:09:20;2.10;;;0.68;;
46090;SDS011;31826;53.572;10.170;2023-07-20T12:11:48;3.33;;;0.80;;
46090;SDS011;31826;53.572;10.170;2023-07-20T12:14:14;1.73;;;0.63;;
46090;SDS011;31826;53.572;10.170;2023-07-20T12:16:40;2.40;;;0.80;;
46090;SDS011;31826;53.572;10.170;2023-07-20T12:19:06;1.97;;;0.70;;
46090;SDS011;31826;53.572;10.170;2023-07-20T12:21:40;3.15;;;1.17;;
46090;SDS011;31826;53.572;10.170;2023-07-20T12:24:07;1.30;;;0.60;;
46090;SDS011;31826;53.572;10.170;2023-07-20T12:26:35;5.63;;;1.00;;
46090;SDS011;31826;53.572;10.170;2023-07-20T12:29:01;1.90;;;0.97;;
46090;SDS011;31826;53.572;10.170;2023-07-20T12:31:28;5.10;;;0.80;;
46090;SDS011;31826;53.572;10.170;2023-07-20T12:33:56;2.10;;;1.00;;
46090;SDS011;31826;53.572;10.170;2023-07-20T12:36:23;3.20;;;1.10;;
46090;SDS011;31826;53.572;10.170;2023-07-20T12:38:50;4.57;;;0.90;;
46090;SDS011;31826;53.572;10.170;2023-07-20T12:41:16;2.47;;;0.90;;
46090;SDS011;31826;53.572;10.170;2023-07-20T12:43:43;4.43;;;0.90;;
46090;SDS011;31826;53.572;10.170;2023-07-20T12:46:10;1.77;;;0.80;;
46090;SDS011;31826;53.572;10.170;2023-07-20T12:48:37;3.17;;;1.17;;
46090;SDS011;31826;53.572;10.170;2023-07-20T12:51:05;2.70;;;1.02;;
46090;SDS011;31826;53.572;10.170;2023-07-20T12:53:31;1.90;;;0.88;;
46090;SDS011;31826;53.572;10.170;2023-07-20T12:55:57;4.45;;;1.30;;
46090;SDS011;31826;53.572;10.170;2023-07-20T12:58:24;4.33;;;1.00;;
46090;SDS011;31826;53.572;10.170;2023-07-20T13:00:50;1.67;;;0.87;;
46090;SDS011;31826;53.572;10.170;2023-07-20T13:03:15;3.23;;;1.03;;
46090;SDS011;31826;53.572;10.170;2023-07-20T13:05:43;2.50;;;0.70;;
46090;SDS011;31826;53.572;10.170;2023-07-20T13:08:09;3.55;;;1.00;;
46090;SDS011;31826;53.572;10.170;2023-07-20T13:10:35;2.87;;;1.00;;
46090;SDS011;31826;53.572;10.170;2023-07-20T13:13:01;3.30;;;1.00;;
46090;SDS011;31826;53.572;10.170;2023-07-20T13:15:30;3.95;;;1.00;;
46090;SDS011;31826;53.572;10.170;2023-07-20T13:17:57;3.75;;;1.13;;
46090;SDS011;31826;53.572;10.170;2023-07-20T13:20:24;2.00;;;0.90;;
46090;SDS011;31826;53.572;10.170;2023-07-20T13:22:50;3.60;;;0.80;;
46090;SDS011;31826;53.572;10.170;2023-07-20T13:25:16;2.85;;;0.98;;
46090;SDS011;31826;53.572;10.170;2023-07-20T13:27:42;2.97;;;1.10;;
46090;SDS011;31826;53.572;10.170;2023-07-20T13:30:08;3.63;;;1.00;;
46090;SDS011;31826;53.572;10.170;2023-07-20T13:32:38;1.60;;;1.08;;
46090;SDS011;31826;53.572;10.170;2023-07-20T13:35:04;2.67;;;1.20;;
46090;SDS011;31826;53.572;10.170;2023-07-20T13:37:30;1.90;;;0.80;;
46090;SDS011;31826;53.572;10.170;2023-07-20T13:39:56;3.22;;;0.80;;
46090;SDS011;31826;53.572;10.170;2023-07-20T13:42:21;3.90;;;1.07;;
46090;SDS011;31826;53.572;10.170;2023-07-20T13:44:48;2.03;;;0.60;;
46090;SDS011;31826;53.572;10.170;2023-07-20T13:47:14;1.83;;;0.95;;
46090;SDS011;31826;53.572;10.170;2023-07-20T13:49:39;2.47;;;0.82;;
46090;SDS011;31826;53.572;10.170;2023-07-20T13:52:05;2.88;;;0.90;;
46090;SDS011;31826;53.572;10.170;2023-07-20T13:54:31;2.28;;;1.20;;
46090;SDS011;31826;53.572;10.170;2023-07-20T13:56:57;2.63;;;1.27;;
46090;SDS011;31826;53.572;10.170;2023-07-20T13:59:22;2.00;;;0.90;;
46090;SDS011;31826;53.572;10.170;2023-07-20T14:01:48;2.42;;;1.10;;
46090;SDS011;31826;53.572;10.170;2023-07-20T14:04:14;1.77;;;0.80;;
46090;SDS011;31826;53.572;10.170;2023-07-20T14:06:40;2.55;;;0.80;;
46090;SDS011;31826;53.572;10.170;2023-07-20T14:09:07;3.88;;;0.80;;
46090;SDS011;31826;53.572;10.170;2023-07-20T14:11:33;2.88;;;1.10;;
46090;SDS011;31826;53.572;10.170;2023-07-20T14:13:59;2.58;;;0.80;;
46090;SDS011;31826;53.572;10.170;2023-07-20T14:16:24;2.97;;;0.87;;
46090;SDS011;31826;53.572;10.170;2023-07-20T14:18:50;2.45;;;0.70;;
46090;SDS011;31826;53.572;10.170;2023-07-20T14:21:16;1.45;;;0.80;;
46090;SDS011;31826;53.572;10.170;2023-07-20T14:23:46;2.17;;;0.73;;
46090;SDS011;31826;53.572;10.170;2023-07-20T14:26:14;1.65;;;0.63;;
46090;SDS011;31826;53.572;10.170;2023-07-20T14:28:40;1.95;;;0.70;;
46090;SDS011;31826;53.572;10.170;2023-07-20T14:31:06;2.22;;;0.80;;
46090;SDS011;31826;53.572;10.170;2023-07-20T14:33:31;3.10;;;0.85;;
46090;SDS011;31826;53.572;10.170;2023-07-20T14:35:57;1.30;;;0.80;;
46090;SDS011;31826;53.572;10.170;2023-07-20T14:38:23;0.90;;;0.80;;
46090;SDS011;31826;53.572;10.170;2023-07-20T14:40:49;3.58;;;0.80;;
46090;SDS011;31826;53.572;10.170;2023-07-20T14:43:15;2.90;;;1.02;;
46090;SDS011;31826;53.572;10.170;2023-07-20T14:45:41;2.50;;;1.30;;
46090;SDS011;31826;53.572;10.170;2023-07-20T14:48:07;1.30;;;1.05;;
46090;SDS011;31826;53.572;10.170;2023-07-20T14:50:32;2.13;;;0.70;;
46090;SDS011;31826;53.572;10.170;2023-07-20T14:52:59;2.05;;;0.90;;
46090;SDS011;31826;53.572;10.170;2023-07-20T14:55:25;1.10;;;0.80;;
46090;SDS011;31826;53.572;10.170;2023-07-20T14:57:50;1.00;;;0.70;;
46090;SDS011;31826;53.572;10.170;2023-07-20T15:00:16;1.50;;;0.80;;